createdAt,value
2018-07-26T00:01:11.312Z,31.58
2018-07-26T00:03:43.474Z,31.56
2018-07-26T00:06:15.036Z,31.58
2018-07-26T00:08:47.869Z,31.59
2018-07-26T00:11:20.095Z,31.57
2018-07-26T00:13:51.864Z,31.57
2018-07-26T00:16:23.679Z,31.51
2018-07-26T00:18:55.494Z,31.52
2018-07-26T00:21:27.499Z,31.53
2018-07-26T00:23:59.566Z,31.50
2018-07-26T00:26:31.454Z,31.50
2018-07-26T00:29:03.332Z,31.50
2018-07-26T00:31:35.940Z,31.46
2018-07-26T00:34:07.915Z,31.45
2018-07-26T00:36:39.458Z,31.46
2018-07-26T00:39:12.762Z,31.46
2018-07-26T00:41:44.834Z,31.46
2018-07-26T00:44:16.451Z,31.40
2018-07-26T00:46:49.046Z,31.40
2018-07-26T00:49:20.776Z,31.45
2018-07-26T00:51:52.615Z,31.49
2018-07-26T00:54:24.493Z,31.42
2018-07-26T00:56:56.693Z,31.45
2018-07-26T00:59:28.824Z,31.45
2018-07-26T01:02:00.488Z,31.44
2018-07-26T01:04:32.354Z,31.44
2018-07-26T01:07:04.186Z,31.37
2018-07-26T01:09:37.195Z,31.38
2018-07-26T01:12:09.442Z,31.35
2018-07-26T01:14:41.272Z,31.33
2018-07-26T01:17:13.068Z,31.36
2018-07-26T01:19:44.895Z,31.37
2018-07-26T01:22:17.143Z,31.38
2018-07-26T01:24:49.048Z,31.39
2018-07-26T01:27:21.023Z,31.35
2018-07-26T01:29:52.959Z,31.33
2018-07-26T01:32:24.941Z,31.33
2018-07-26T01:34:56.800Z,31.33
2018-07-26T01:37:28.370Z,31.29
2018-07-26T01:40:00.060Z,31.32
2018-07-26T01:42:37.088Z,31.33
2018-07-26T01:45:09.059Z,31.31
2018-07-26T01:47:40.870Z,31.29
2018-07-26T01:50:12.732Z,31.32
2018-07-26T01:52:44.720Z,31.30
2018-07-26T01:55:16.636Z,31.32
2018-07-26T01:57:48.294Z,31.29
2018-07-26T02:00:20.044Z,31.29
2018-07-26T02:02:51.812Z,31.29
2018-07-26T02:05:23.637Z,31.29
2018-07-26T02:07:55.580Z,31.27
2018-07-26T02:10:27.902Z,31.21
2018-07-26T02:12:59.731Z,31.22
2018-07-26T02:15:31.591Z,31.24
2018-07-26T02:18:03.476Z,31.25
2018-07-26T02:20:35.321Z,31.20
2018-07-26T02:23:06.953Z,31.19
2018-07-26T02:25:39.019Z,31.22
2018-07-26T02:28:11.138Z,31.21
2018-07-26T02:30:42.847Z,31.18
2018-07-26T02:33:14.539Z,31.18
2018-07-26T02:35:46.586Z,31.18
2018-07-26T02:38:18.318Z,31.16
2018-07-26T02:40:50.233Z,31.16
2018-07-26T02:43:22.136Z,31.16
2018-07-26T02:45:53.971Z,31.15
2018-07-26T02:48:26.000Z,31.16
2018-07-26T02:50:58.000Z,31.14
2018-07-26T02:53:29.837Z,31.13
2018-07-26T02:56:01.855Z,31.13
2018-07-26T02:58:33.638Z,31.15
2018-07-26T03:01:05.325Z,31.11
2018-07-26T03:03:37.907Z,31.11
2018-07-26T03:06:09.594Z,31.09
2018-07-26T03:08:41.633Z,31.10
2018-07-26T03:11:13.594Z,31.10
2018-07-26T03:13:45.637Z,31.07
2018-07-26T03:16:17.279Z,31.08
2018-07-26T03:18:49.403Z,31.08
2018-07-26T03:21:21.004Z,31.05
2018-07-26T03:23:52.911Z,31.05
2018-07-26T03:27:28.465Z,31.03
2018-07-26T03:30:00.471Z,31.07
2018-07-26T03:32:32.368Z,31.04
2018-07-26T03:35:04.775Z,31.03
2018-07-26T03:37:36.620Z,30.99
2018-07-26T03:40:08.461Z,30.99
2018-07-26T03:42:40.380Z,30.97
2018-07-26T03:45:12.210Z,30.91
2018-07-26T03:47:43.644Z,30.88
2018-07-26T03:50:15.647Z,30.89
2018-07-26T03:52:47.336Z,30.81
2018-07-26T03:55:19.382Z,30.81
2018-07-26T03:57:51.237Z,30.76
2018-07-26T04:00:22.916Z,30.71
2018-07-26T04:02:54.736Z,30.76
2018-07-26T04:05:26.693Z,30.75
2018-07-26T04:07:58.271Z,30.76
2018-07-26T04:10:30.136Z,30.79
2018-07-26T04:13:02.358Z,30.77
2018-07-26T04:15:34.067Z,30.74
2018-07-26T04:18:07.568Z,30.77
2018-07-26T04:20:39.587Z,30.70
2018-07-26T04:23:11.490Z,30.71
2018-07-26T04:25:43.343Z,30.68
2018-07-26T04:28:15.239Z,30.65
2018-07-26T04:30:47.492Z,30.59
2018-07-26T04:33:19.005Z,30.55
2018-07-26T04:35:51.248Z,30.61
2018-07-26T04:38:22.996Z,30.63
2018-07-26T04:40:54.885Z,30.62
2018-07-26T04:43:26.802Z,30.60
2018-07-26T04:45:58.983Z,30.60
2018-07-26T04:48:30.855Z,30.61
2018-07-26T04:51:02.754Z,30.59
2018-07-26T04:53:34.560Z,30.62
2018-07-26T04:56:06.792Z,30.59
2018-07-26T04:58:38.269Z,30.65
2018-07-26T05:01:10.194Z,30.62
2018-07-26T05:03:42.023Z,30.62
2018-07-26T05:06:13.881Z,30.63
2018-07-26T05:08:45.841Z,30.59
2018-07-26T05:11:17.970Z,30.60
2018-07-26T05:13:50.203Z,30.57
2018-07-26T05:16:22.013Z,30.60
2018-07-26T05:18:53.913Z,30.61
2018-07-26T05:21:25.952Z,30.57
2018-07-26T05:23:58.460Z,30.52
2018-07-26T05:26:30.601Z,30.57
2018-07-26T05:29:02.867Z,30.56
2018-07-26T05:31:34.730Z,30.58
2018-07-26T05:34:06.799Z,30.55
2018-07-26T05:36:38.917Z,30.55
2018-07-26T05:39:12.952Z,30.55
2018-07-26T05:41:44.927Z,30.56
2018-07-26T05:44:16.817Z,30.57
2018-07-26T05:46:48.933Z,30.56
2018-07-26T05:49:20.952Z,30.56
2018-07-26T05:51:52.908Z,30.56
2018-07-26T05:54:24.949Z,30.52
2018-07-26T05:56:56.825Z,30.53
2018-07-26T05:59:28.672Z,30.55
2018-07-26T06:02:01.164Z,30.53
2018-07-26T06:04:33.352Z,30.43
2018-07-26T06:07:05.940Z,30.46
2018-07-26T06:09:38.120Z,30.45
2018-07-26T06:12:10.429Z,30.45
2018-07-26T06:14:42.321Z,30.48
2018-07-26T06:17:14.302Z,30.46
2018-07-26T06:19:46.370Z,30.45
2018-07-26T06:22:18.728Z,30.47
2018-07-26T06:24:50.771Z,30.42
2018-07-26T06:27:23.747Z,30.47
2018-07-26T06:29:56.171Z,30.42
2018-07-26T06:32:28.251Z,30.40
2018-07-26T06:35:00.134Z,30.39
2018-07-26T06:37:32.038Z,30.36
2018-07-26T06:40:03.935Z,30.38
2018-07-26T06:42:36.213Z,30.35
2018-07-26T06:45:09.282Z,30.39
2018-07-26T06:47:41.421Z,30.40
2018-07-26T06:50:13.976Z,30.39
2018-07-26T06:52:46.363Z,30.37
2018-07-26T06:55:19.472Z,30.35
2018-07-26T06:57:53.415Z,30.35
2018-07-26T07:00:26.047Z,30.35
2018-07-26T07:02:59.215Z,30.35
2018-07-26T07:05:32.026Z,30.34
2018-07-26T07:08:04.302Z,30.31
2018-07-26T07:10:36.553Z,30.33
2018-07-26T07:13:10.228Z,30.32
2018-07-26T07:15:42.847Z,30.34
2018-07-26T07:18:15.134Z,30.32
2018-07-26T07:20:48.102Z,30.29
2018-07-26T07:23:20.712Z,30.30
2018-07-26T07:25:52.557Z,30.28
2018-07-26T07:28:24.714Z,30.27
2018-07-26T07:30:56.811Z,30.29
2018-07-26T07:33:29.303Z,30.28
2018-07-26T07:36:01.322Z,30.27
2018-07-26T07:38:33.734Z,30.23
2018-07-26T07:41:06.238Z,30.27
2018-07-26T07:43:38.212Z,30.26
2018-07-26T07:46:10.233Z,30.25
2018-07-26T07:48:42.361Z,30.25
2018-07-26T07:51:15.788Z,30.26
2018-07-26T07:53:49.859Z,30.23
2018-07-26T07:56:22.408Z,30.23
2018-07-26T07:58:54.977Z,30.23
2018-07-26T08:01:27.425Z,30.25
2018-07-26T08:03:59.705Z,30.24
2018-07-26T08:06:31.959Z,30.21
2018-07-26T08:09:04.786Z,30.24
2018-07-26T08:11:36.900Z,30.21
2018-07-26T08:14:11.240Z,30.22
2018-07-26T08:16:42.987Z,30.22
2018-07-26T08:19:16.091Z,30.21
2018-07-26T08:21:47.955Z,30.19
2018-07-26T08:24:23.619Z,30.23
2018-07-26T08:26:55.715Z,30.17
2018-07-26T08:29:28.210Z,30.21
2018-07-26T08:32:00.475Z,30.17
2018-07-26T08:34:32.727Z,30.16
2018-07-26T08:37:05.876Z,30.18
2018-07-26T08:39:38.075Z,30.15
2018-07-26T08:42:10.006Z,30.16
2018-07-26T08:44:42.430Z,30.16
2018-07-26T08:47:14.497Z,30.14
2018-07-26T08:49:46.581Z,30.18
2018-07-26T08:52:18.852Z,30.17
2018-07-26T08:54:51.199Z,30.16
2018-07-26T08:57:23.396Z,30.09
2018-07-26T08:59:56.996Z,30.09
2018-07-26T09:02:30.430Z,30.09
2018-07-26T09:05:02.768Z,30.11
2018-07-26T09:07:35.804Z,30.10
2018-07-26T09:10:08.842Z,30.09
2018-07-26T09:12:41.005Z,30.14
2018-07-26T09:15:13.533Z,30.13
2018-07-26T09:17:46.016Z,30.13
2018-07-26T09:20:18.063Z,30.12
2018-07-26T09:22:50.462Z,30.09
2018-07-26T09:25:23.326Z,30.03
2018-07-26T09:27:55.716Z,30.02
2018-07-26T09:30:28.038Z,30.03
2018-07-26T09:33:00.631Z,30.06
2018-07-26T09:35:34.574Z,30.09
2018-07-26T09:38:07.633Z,30.09
2018-07-26T09:40:39.903Z,30.08
2018-07-26T09:43:13.125Z,30.10
2018-07-26T09:45:45.976Z,30.10
2018-07-26T09:48:18.656Z,30.11
2018-07-26T09:50:50.564Z,30.10
2018-07-26T09:53:23.347Z,30.10
2018-07-26T09:55:56.869Z,30.13
2018-07-26T09:58:30.138Z,30.09
2018-07-26T10:01:09.147Z,30.08
2018-07-26T10:03:44.113Z,30.09
2018-07-26T10:06:18.589Z,30.10
2018-07-26T10:08:53.006Z,30.10
2018-07-26T10:11:26.965Z,30.11
2018-07-26T10:14:00.173Z,30.10
2018-07-26T10:16:33.093Z,30.10
2018-07-26T10:19:05.923Z,30.09
2018-07-26T10:21:38.794Z,30.08
2018-07-26T10:24:11.428Z,30.08
2018-07-26T10:26:44.376Z,30.09
2018-07-26T10:29:17.450Z,30.09
2018-07-26T10:31:49.871Z,30.08
2018-07-26T10:34:22.020Z,30.10
2018-07-26T10:36:54.169Z,30.10
2018-07-26T10:39:26.571Z,30.11
2018-07-26T10:41:58.726Z,30.11
2018-07-26T10:44:31.031Z,30.10
2018-07-26T10:47:03.537Z,30.08
2018-07-26T10:49:36.004Z,30.06
2018-07-26T10:52:08.300Z,30.06
2018-07-26T10:54:40.547Z,30.05
2018-07-26T10:57:12.694Z,30.06
2018-07-26T10:59:44.596Z,30.06
2018-07-26T11:02:17.729Z,30.06
2018-07-26T11:04:49.811Z,30.05
2018-07-26T11:07:22.327Z,30.06
2018-07-26T11:09:55.261Z,30.06
2018-07-26T11:12:28.096Z,30.04
2018-07-26T11:15:21.690Z,30.05
2018-07-26T11:17:53.988Z,30.07
2018-07-26T11:20:26.598Z,30.04
2018-07-26T11:22:58.959Z,30.04
2018-07-26T11:25:31.628Z,29.98
2018-07-26T11:28:05.083Z,30.00
2018-07-26T11:30:37.443Z,30.00
2018-07-26T11:33:09.473Z,30.02
2018-07-26T11:35:41.481Z,30.02
2018-07-26T11:38:14.296Z,29.99
2018-07-26T11:40:46.665Z,29.98
2018-07-26T11:43:19.279Z,29.99
2018-07-26T11:45:51.718Z,30.00
2018-07-26T11:48:24.039Z,30.01
2018-07-26T11:50:56.711Z,29.99
2018-07-26T11:53:29.188Z,30.00
2018-07-26T11:56:01.274Z,29.98
2018-07-26T11:58:33.742Z,29.97
2018-07-26T12:01:06.196Z,30.00
2018-07-26T12:03:40.653Z,29.96
2018-07-26T12:06:13.045Z,29.96
2018-07-26T12:08:44.978Z,29.98
2018-07-26T12:11:17.637Z,29.98
2018-07-26T12:13:50.122Z,29.97
2018-07-26T12:16:22.391Z,29.96
2018-07-26T12:18:55.314Z,29.98
2018-07-26T12:21:28.377Z,29.97
2018-07-26T12:24:00.651Z,29.96
2018-07-26T12:26:33.409Z,29.97
2018-07-26T12:29:06.779Z,29.97
2018-07-26T12:31:39.350Z,29.98
2018-07-26T12:34:11.878Z,29.98
2018-07-26T12:36:43.916Z,29.97
2018-07-26T12:39:16.241Z,29.97
2018-07-26T12:41:49.616Z,29.96
2018-07-26T12:44:22.171Z,29.96
2018-07-26T12:46:54.670Z,29.93
2018-07-26T12:49:27.797Z,29.90
2018-07-26T12:51:59.983Z,29.88
2018-07-26T12:54:32.285Z,29.92
2018-07-26T12:57:04.828Z,29.94
2018-07-26T12:59:37.333Z,29.92
2018-07-26T13:02:10.076Z,29.89
2018-07-26T13:04:42.572Z,29.88
2018-07-26T13:07:15.111Z,29.85
2018-07-26T13:09:47.720Z,29.87
2018-07-26T13:12:20.388Z,29.88
2018-07-26T13:14:52.556Z,29.89
2018-07-26T13:17:25.540Z,29.88
2018-07-26T13:19:58.926Z,29.88
2018-07-26T13:22:31.274Z,29.90
2018-07-26T13:25:04.378Z,29.88
2018-07-26T13:27:36.621Z,29.87
2018-07-26T13:30:12.334Z,29.89
2018-07-26T13:32:45.127Z,29.89
2018-07-26T13:35:18.542Z,29.88
2018-07-26T13:37:51.101Z,29.86
2018-07-26T13:40:24.056Z,29.83
2018-07-26T13:42:57.261Z,29.85
2018-07-26T13:45:29.405Z,29.86
2018-07-26T13:48:01.543Z,29.86
2018-07-26T13:50:33.955Z,29.85
2018-07-26T13:53:07.459Z,29.84
2018-07-26T13:55:40.691Z,29.83
2018-07-26T13:58:13.004Z,29.82
2018-07-26T14:00:45.839Z,29.82
2018-07-26T14:03:19.648Z,29.82
2018-07-26T14:05:51.993Z,29.78
2018-07-26T14:08:25.772Z,29.79
2018-07-26T14:10:57.838Z,29.78
2018-07-26T14:13:30.512Z,29.77
2018-07-26T14:16:03.291Z,29.76
2018-07-26T14:18:38.178Z,29.77
2018-07-26T14:21:11.291Z,29.79
2018-07-26T14:23:46.152Z,29.76
2018-07-26T14:26:20.365Z,29.77
2018-07-26T14:28:52.806Z,29.78
2018-07-26T14:31:25.236Z,29.82
2018-07-26T14:33:57.400Z,29.83
2018-07-26T14:36:29.895Z,29.81
2018-07-26T14:39:03.104Z,29.77
2018-07-26T14:41:35.493Z,29.76
2018-07-26T14:44:09.184Z,29.78
2018-07-26T14:46:41.463Z,29.78
2018-07-26T14:49:13.701Z,29.80
2018-07-26T14:51:47.175Z,29.78
2018-07-26T14:54:19.515Z,29.77
2018-07-26T14:56:51.902Z,29.77
2018-07-26T14:59:26.522Z,29.74
2018-07-26T15:01:59.098Z,29.75
2018-07-26T15:04:31.258Z,29.76
2018-07-26T15:07:03.812Z,29.79
2018-07-26T15:09:36.579Z,29.72
2018-07-26T15:12:09.035Z,29.75
2018-07-26T15:14:41.079Z,29.75
2018-07-26T15:17:13.416Z,29.74
2018-07-26T15:19:47.684Z,29.73
2018-07-26T15:22:20.095Z,29.72
2018-07-26T15:24:52.325Z,29.74
2018-07-26T15:27:24.815Z,29.74
2018-07-26T15:29:57.860Z,29.73
2018-07-26T15:32:30.156Z,29.74
2018-07-26T15:35:02.644Z,29.73
2018-07-26T15:37:34.721Z,29.73
2018-07-26T15:40:07.230Z,29.71
2018-07-26T15:42:39.310Z,29.61
2018-07-26T15:45:12.375Z,29.70
2018-07-26T15:47:44.611Z,29.73
2018-07-26T15:50:17.470Z,29.72
2018-07-26T15:52:50.026Z,29.73
2018-07-26T15:55:22.183Z,29.75
2018-07-26T15:57:55.647Z,29.74
2018-07-26T16:00:28.256Z,29.74
2018-07-26T16:03:01.674Z,29.73
2018-07-26T16:12:35.345Z,29.71
2018-07-26T16:15:09.151Z,29.72
2018-07-26T16:17:41.618Z,29.72
2018-07-26T16:20:15.869Z,29.73
2018-07-26T16:22:48.360Z,29.75
2018-07-26T16:25:26.063Z,29.72
2018-07-26T16:27:58.219Z,29.74
2018-07-26T16:30:31.375Z,29.76
2018-07-26T16:33:03.577Z,29.76
2018-07-26T16:35:37.035Z,29.77
2018-07-26T16:38:10.111Z,29.76
2018-07-26T16:40:43.276Z,29.74
2018-07-26T16:43:15.946Z,29.74
2018-07-26T16:45:48.905Z,29.75
2018-07-26T16:48:21.820Z,29.76
2018-07-26T16:50:55.305Z,29.75
2018-07-26T16:53:27.997Z,29.75
2018-07-26T16:55:59.981Z,29.74
2018-07-26T16:58:33.683Z,29.73
2018-07-26T17:01:06.784Z,29.75
2018-07-26T17:03:40.181Z,29.75
2018-07-26T17:06:14.070Z,29.74
2018-07-26T17:08:47.460Z,29.73
2018-07-26T17:11:19.786Z,29.73
2018-07-26T17:13:51.895Z,29.74
2018-07-26T17:16:24.172Z,29.76
2018-07-26T17:18:56.603Z,29.75
2018-07-26T17:21:28.750Z,29.72
2018-07-26T17:24:03.368Z,29.72
2018-07-26T17:26:35.967Z,29.74
2018-07-26T17:29:08.328Z,29.74
2018-07-26T17:31:41.135Z,29.72
2018-07-26T17:34:13.458Z,29.75
2018-07-26T17:36:46.266Z,29.76
2018-07-26T17:39:18.400Z,29.74
2018-07-26T17:41:50.364Z,29.74
2018-07-26T17:46:48.635Z,29.73
2018-07-26T17:49:22.078Z,29.74
2018-07-26T17:51:55.064Z,29.71
2018-07-26T17:54:27.691Z,29.71
2018-07-26T17:57:00.019Z,29.69
2018-07-26T17:59:32.765Z,29.71
2018-07-26T18:02:05.484Z,29.68
2018-07-26T18:04:39.729Z,29.68
2018-07-26T18:07:12.989Z,29.71
2018-07-26T18:09:45.887Z,29.70
2018-07-26T18:12:18.154Z,29.70
2018-07-26T18:14:51.320Z,29.70
2018-07-26T18:17:23.915Z,29.67
2018-07-26T18:19:56.956Z,29.70
2018-07-26T18:22:29.598Z,29.69
2018-07-26T18:25:03.167Z,29.68
2018-07-26T18:27:36.890Z,29.70
2018-07-26T18:30:09.826Z,29.67
2018-07-26T18:32:42.919Z,29.68
2018-07-26T18:35:16.733Z,29.68
2018-07-26T18:37:49.407Z,29.68
2018-07-26T18:40:22.194Z,29.64
2018-07-26T18:42:55.277Z,29.60
2018-07-26T18:45:27.533Z,29.61
2018-07-26T18:48:00.565Z,29.63
2018-07-26T18:50:33.156Z,29.64
2018-07-26T18:53:05.339Z,29.64
2018-07-26T18:55:37.856Z,29.65
2018-07-26T18:58:10.288Z,29.64
2018-07-26T19:00:43.696Z,29.62
2018-07-26T19:03:16.034Z,29.61
2018-07-26T19:05:48.178Z,29.64
2018-07-26T19:08:20.078Z,29.62
2018-07-26T19:10:52.581Z,29.62
2018-07-26T19:13:25.637Z,29.59
2018-07-26T19:15:57.933Z,29.58
2018-07-26T19:18:30.497Z,29.57
2018-07-26T19:21:02.659Z,29.57
2018-07-26T19:23:34.568Z,29.56
2018-07-26T19:26:07.083Z,29.57
2018-07-26T19:28:39.650Z,29.57
2018-07-26T19:31:11.960Z,29.56
2018-07-26T19:33:44.272Z,29.54
2018-07-26T19:36:16.611Z,29.53
2018-07-26T19:38:48.834Z,29.52
2018-07-26T19:41:21.432Z,29.58
2018-07-26T19:43:53.664Z,29.56
2018-07-26T19:46:25.985Z,29.59
2018-07-26T19:48:58.017Z,29.56
2018-07-26T19:51:30.115Z,29.54
2018-07-26T19:54:02.440Z,29.53
2018-07-26T19:56:35.838Z,29.53
2018-07-26T19:59:08.012Z,29.50
2018-07-26T20:01:40.574Z,29.52
2018-07-26T20:04:13.008Z,29.50
2018-07-26T20:06:45.207Z,29.47
2018-07-26T20:09:17.412Z,29.48
2018-07-26T20:11:49.888Z,29.49
2018-07-26T20:14:21.909Z,29.49
2018-07-26T20:16:54.211Z,29.48
2018-07-26T20:19:26.420Z,29.47
2018-07-26T20:21:58.693Z,29.48
2018-07-26T20:24:30.863Z,29.43
2018-07-26T20:27:03.098Z,29.44
2018-07-26T20:29:35.359Z,29.47
2018-07-26T20:32:07.137Z,29.46
2018-07-26T20:34:39.103Z,29.41
2018-07-26T20:37:11.501Z,29.41
2018-07-26T20:39:43.767Z,29.40
2018-07-26T20:42:16.409Z,29.39
2018-07-26T20:44:48.373Z,29.36
2018-07-26T20:47:20.429Z,29.36
2018-07-26T20:49:52.398Z,29.37
2018-07-26T20:52:24.590Z,29.34
2018-07-26T20:54:57.431Z,29.33
2018-07-26T20:57:29.448Z,29.31
2018-07-26T21:00:01.958Z,29.36
2018-07-26T21:02:34.148Z,29.34
2018-07-26T21:05:06.071Z,29.35
2018-07-26T21:07:37.882Z,29.34
2018-07-26T21:10:10.651Z,29.33
2018-07-26T21:12:42.650Z,29.33
2018-07-26T21:15:14.698Z,29.34
2018-07-26T21:17:46.501Z,29.28
2018-07-26T21:20:18.671Z,29.29
2018-07-26T21:22:51.036Z,29.26
2018-07-26T21:25:22.865Z,29.25
2018-07-26T21:27:55.027Z,29.26
2018-07-26T21:30:26.919Z,29.24
2018-07-26T21:32:58.586Z,29.26
2018-07-26T21:35:30.422Z,29.27
2018-07-26T21:38:02.507Z,29.25
2018-07-26T21:40:34.455Z,29.24
2018-07-26T21:43:06.461Z,29.24
2018-07-26T21:45:38.285Z,29.25
2018-07-26T21:48:09.941Z,29.21
2018-07-26T21:50:41.784Z,29.23
2018-07-26T21:53:13.648Z,29.23
2018-07-26T21:55:45.471Z,29.26
2018-07-26T21:58:17.281Z,29.25
2018-07-26T22:00:53.477Z,29.21
2018-07-26T22:03:25.588Z,29.23
2018-07-26T22:05:57.589Z,29.22
2018-07-26T22:08:29.346Z,29.21
2018-07-26T22:11:01.060Z,29.22
2018-07-26T22:13:33.072Z,29.20
2018-07-26T22:16:04.998Z,29.22
2018-07-26T22:18:36.804Z,29.19
2018-07-26T22:21:09.773Z,29.17
2018-07-26T22:23:41.419Z,29.19
2018-07-26T22:26:13.326Z,29.18
2018-07-26T22:28:45.030Z,29.21
2018-07-26T22:31:16.604Z,29.17
2018-07-26T22:33:48.311Z,29.17
2018-07-26T22:36:20.266Z,29.20
2018-07-26T22:38:52.853Z,29.20
2018-07-26T22:41:24.626Z,29.18
2018-07-26T22:43:56.308Z,29.18
2018-07-26T22:46:28.207Z,29.15
2018-07-26T22:48:59.846Z,29.18
2018-07-26T22:51:31.865Z,29.15
2018-07-26T22:54:04.896Z,29.18
2018-07-26T22:56:36.834Z,29.22
2018-07-26T22:59:08.603Z,29.18
2018-07-26T23:01:40.396Z,29.18
2018-07-26T23:04:12.268Z,29.13
2018-07-26T23:06:44.094Z,29.11
2018-07-26T23:09:15.735Z,29.12
2018-07-26T23:11:47.519Z,29.12
2018-07-26T23:14:19.245Z,29.15
2018-07-26T23:16:51.137Z,29.13
2018-07-26T23:19:22.843Z,29.15
2018-07-26T23:21:55.001Z,29.13
2018-07-26T23:24:26.761Z,29.10
2018-07-26T23:26:58.394Z,29.12
2018-07-26T23:29:30.442Z,29.11
2018-07-26T23:32:02.196Z,29.11
2018-07-26T23:34:33.975Z,29.09
2018-07-26T23:37:05.897Z,29.12
2018-07-26T23:39:37.573Z,29.09
2018-07-26T23:42:09.462Z,29.08
2018-07-26T23:44:41.237Z,29.09
2018-07-26T23:47:12.984Z,29.07
2018-07-26T23:49:44.724Z,29.07
2018-07-26T23:52:16.456Z,29.06
2018-07-26T23:54:48.102Z,29.07
2018-07-26T23:57:19.772Z,29.05
2018-07-26T23:59:51.360Z,29.05
